Time;durP1;ratioP1;P1;durP2;ratioP2;P2;SDS_P1;SDS_P2;PMS_P1;PMS_P2;Temp;Humidity;BMP_temperature;BMP_pressure;BME280_temperature;BME280_humidity;BME280_pressure;Samples;Min_cycle;Max_cycle;Signal;HPM_P1;HPM_P2
2023/05/17 00:02:05;;;;;;;;;;;;;;;10.15;100.00;-18301.28;5026016;28;19921;-85
2023/05/17 00:04:32;;;;;;;;;;;;;;;10.12;100.00;-18300.47;5026778;28;20703;-83
2023/05/17 00:06:57;;;;;;;;;;;;;;;10.21;100.00;-18302.78;5029440;28;20015;-81
2023/05/17 00:09:22;;;;;;;;;;;;;;;10.20;100.00;-18302.53;5029903;28;20007;-84
2023/05/17 00:11:47;;;;;;;;;;;;;;;10.13;100.00;-18300.88;5028564;28;19948;-82
2023/05/17 00:14:12;;;;;;;;;;;;;;;10.16;100.00;-18301.69;5010343;28;19917;-84
2023/05/17 00:16:38;;;;;;;;;;;;;;;10.28;100.00;-18304.88;5029179;28;19980;-81
2023/05/17 00:19:03;;;;;;;;;;;;;;;10.00;100.00;-18297.16;5026398;28;19974;-82
2023/05/17 00:21:28;;;;;;;;;;;;;;;9.92;100.00;-18295.25;5027950;28;19917;-80
2023/05/17 00:23:53;;;;;;;;;;;;;;;9.97;100.00;-18296.34;5028713;28;19979;-84
2023/05/17 00:26:19;;;;;;;;;;;;;;;9.82;100.00;-18292.34;5027190;28;20396;-83
2023/05/17 00:28:44;;;;;;;;;;;;;;;9.86;100.00;-18293.59;5026107;28;19924;-81
2023/05/17 00:31:09;;;;;;;;;;;;;;;9.91;100.00;-18294.81;5011851;28;19920;-84
2023/05/17 00:33:35;;;;;;;;;;;;;;;9.90;100.00;-18294.56;5029893;28;19924;-83
2023/05/17 00:36:00;;;;;;;;;;;;;;;9.96;100.00;-18296.19;5027012;28;19916;-81
2023/05/17 00:38:25;;;;;;;;;;;;;;;10.07;100.00;-18299.22;5025903;28;19996;-85
2023/05/17 00:40:52;;;;;;;;;;;;;;;9.94;100.00;-18295.78;5012580;28;20292;-84
2023/05/17 00:43:18;;;;;;;;;;;;;;;9.75;100.00;-18290.56;5027351;28;19948;-81
2023/05/17 00:45:43;;;;;;;;;;;;;;;9.86;100.00;-18293.44;5025713;28;19924;-79
2023/05/17 00:48:08;;;;;;;;;;;;;;;9.73;100.00;-18290.00;5024477;28;19932;-82
2023/05/17 00:50:33;;;;;;;;;;;;;;;9.60;100.00;-18286.56;5010080;28;19917;-80
2023/05/17 00:52:59;;;;;;;;;;;;;;;9.71;100.00;-18289.59;5024692;28;19971;-81
2023/05/17 00:55:25;;;;;;;;;;;;;;;9.83;100.00;-18292.63;5026508;28;19978;-83
2023/05/17 00:57:50;;;;;;;;;;;;;;;9.76;100.00;-18290.84;5026061;28;20415;-86
2023/05/17 01:00:15;;;;;;;;;;;;;;;9.78;100.00;-18291.25;5023918;28;19979;-80
2023/05/17 01:02:43;;;;;;;;;;;;;;;9.67;100.00;-18288.50;5028051;28;19925;-81
2023/05/17 01:05:08;;;;;;;;;;;;;;;9.69;100.00;-18289.06;5025829;28;19925;-83
2023/05/17 01:07:33;;;;;;;;;;;;;;;9.73;100.00;-18290.00;5031164;28;19923;-82
2023/05/17 01:09:59;;;;;;;;;;;;;;;9.68;100.00;-18288.63;5029623;28;20004;-81
2023/05/17 01:12:36;;;;;;;;;;;;;;;9.73;100.00;-18289.88;5030190;28;19983;-82
2023/05/17 01:15:07;;;;;;;;;;;;;;;9.77;100.00;-18291.13;5030042;28;19979;-80
2023/05/17 01:17:38;;;;;;;;;;;;;;;9.85;100.00;-18293.31;5031282;28;19931;-84
2023/05/17 01:20:10;;;;;;;;;;;;;;;9.75;100.00;-18290.44;5028151;28;19917;-80
2023/05/17 01:22:42;;;;;;;;;;;;;;;9.69;100.00;-18288.91;5029066;28;20426;-81
2023/05/17 01:25:20;;;;;;;;;;;;;;;9.75;100.00;-18290.56;5029754;28;19963;-84
2023/05/17 01:27:47;;;;;;;;;;;;;;;9.72;100.00;-18289.75;5031360;28;19917;-82
2023/05/17 01:30:14;;;;;;;;;;;;;;;9.79;100.00;-18291.53;5027364;28;19929;-81
2023/05/17 01:32:42;;;;;;;;;;;;;;;9.84;100.00;-18293.03;5030192;28;20555;-81
2023/05/17 01:35:09;;;;;;;;;;;;;;;10.00;100.00;-18297.31;5029114;28;20281;-82
2023/05/17 01:37:34;;;;;;;;;;;;;;;9.99;100.00;-18297.03;5030110;28;20372;-83
2023/05/17 01:40:00;;;;;;;;;;;;;;;9.90;100.00;-18294.56;5029849;28;19921;-83
2023/05/17 01:42:30;;;;;;;;;;;;;;;10.02;100.00;-18297.84;5030526;28;20015;-82
2023/05/17 01:45:01;;;;;;;;;;;;;;;10.27;100.00;-18304.59;5030819;28;19925;-82
2023/05/17 01:47:34;;;;;;;;;;;;;;;10.14;100.00;-18301.16;4996054;28;19917;-83
2023/05/17 01:49:59;;;;;;;;;;;;;;;10.30;100.00;-18305.28;5015835;28;19925;-81
2023/05/17 01:52:34;;;;;;;;;;;;;;;10.31;100.00;-18305.56;5032203;28;19927;-81
2023/05/17 01:54:59;;;;;;;;;;;;;;;10.25;100.00;-18303.91;5032241;28;19949;-83
2023/05/17 01:57:32;;;;;;;;;;;;;;;10.25;100.00;-18303.91;5033116;28;19995;-82
2023/05/17 01:59:59;;;;;;;;;;;;;;;10.17;100.00;-18301.97;5031589;28;19948;-82
2023/05/17 02:02:24;;;;;;;;;;;;;;;10.26;100.00;-18304.16;5032445;28;19925;-82
2023/05/17 02:04:50;;;;;;;;;;;;;;;10.18;100.00;-18302.09;5028476;28;19917;-82
2023/05/17 02:07:15;;;;;;;;;;;;;;;10.29;100.00;-18305.00;5029096;28;20335;-81
2023/05/17 02:09:40;;;;;;;;;;;;;;;10.52;100.00;-18311.19;5013436;28;19975;-84
2023/05/17 02:12:06;;;;;;;;;;;;;;;10.69;100.00;-18315.72;5029615;28;19923;-82
2023/05/17 02:14:31;;;;;;;;;;;;;;;10.55;100.00;-18312.16;5029799;28;20055;-81
2023/05/17 02:16:56;;;;;;;;;;;;;;;10.67;100.00;-18315.16;5028664;28;19924;-85
2023/05/17 02:19:22;;;;;;;;;;;;;;;10.77;100.00;-18317.91;5025984;28;19917;-80
2023/05/17 02:21:47;;;;;;;;;;;;;;;10.86;100.00;-18320.38;5028402;28;19917;-81
2023/05/17 02:24:12;;;;;;;;;;;;;;;10.86;100.00;-18320.25;5027126;28;19917;-83
2023/05/17 02:26:41;;;;;;;;;;;;;;;10.96;100.00;-18323.13;5028168;28;19943;-84
2023/05/17 02:29:06;;;;;;;;;;;;;;;10.64;100.00;-18314.34;5028031;28;19921;-79
2023/05/17 02:31:32;;;;;;;;;;;;;;;10.25;100.00;-18303.91;5029109;28;20380;-82
2023/05/17 02:33:57;;;;;;;;;;;;;;;10.31;100.00;-18305.56;5028760;28;20015;-85
2023/05/17 02:36:22;;;;;;;;;;;;;;;10.21;100.00;-18302.78;5029883;28;19979;-81
2023/05/17 02:38:47;;;;;;;;;;;;;;;10.37;100.00;-18307.19;5028191;28;19956;-81
2023/05/17 02:41:13;;;;;;;;;;;;;;;10.43;100.00;-18308.84;5027694;28;19925;-81
2023/05/17 02:43:38;;;;;;;;;;;;;;;10.41;100.00;-18308.31;5028050;28;19933;-80
2023/05/17 02:46:03;;;;;;;;;;;;;;;10.23;100.00;-18303.47;5027570;28;19952;-80
2023/05/17 02:48:29;;;;;;;;;;;;;;;10.24;100.00;-18303.75;5028190;28;19995;-82
2023/05/17 02:50:54;;;;;;;;;;;;;;;10.17;100.00;-18301.97;5028893;28;19925;-78
2023/05/17 02:53:19;;;;;;;;;;;;;;;10.36;100.00;-18307.06;5010324;28;19931;-80
2023/05/17 02:55:44;;;;;;;;;;;;;;;10.42;100.00;-18308.56;5028911;28;19927;-80
2023/05/17 02:58:10;;;;;;;;;;;;;;;10.40;100.00;-18308.03;5025471;28;19921;-79
2023/05/17 03:00:35;;;;;;;;;;;;;;;10.30;100.00;-18305.28;5029531;28;19960;-81
2023/05/17 03:03:00;;;;;;;;;;;;;;;10.24;100.00;-18303.63;5026914;28;19916;-82
2023/05/17 03:05:26;;;;;;;;;;;;;;;10.09;100.00;-18299.78;5025485;28;19944;-79
2023/05/17 03:07:51;;;;;;;;;;;;;;;10.08;100.00;-18299.38;5027639;28;19917;-84
2023/05/17 03:10:16;;;;;;;;;;;;;;;10.04;100.00;-18298.41;5009728;28;20331;-78
2023/05/17 03:12:41;;;;;;;;;;;;;;;10.12;100.00;-18300.47;5027300;28;20372;-81
2023/05/17 03:15:07;;;;;;;;;;;;;;;10.12;100.00;-18300.47;5027078;28;19937;-81
2023/05/17 03:17:32;;;;;;;;;;;;;;;10.14;100.00;-18301.16;5028028;28;19971;-82
2023/05/17 03:19:57;;;;;;;;;;;;;;;10.08;100.00;-18299.50;5026444;28;19927;-82
2023/05/17 03:22:22;;;;;;;;;;;;;;;10.09;100.00;-18299.78;5027831;28;19923;-83
2023/05/17 03:24:48;;;;;;;;;;;;;;;10.10;100.00;-18300.06;5027440;28;19921;-81
2023/05/17 03:27:13;;;;;;;;;;;;;;;10.12;100.00;-18300.59;5026847;28;19971;-84
2023/05/17 03:29:38;;;;;;;;;;;;;;;10.13;100.00;-18300.88;5025339;28;20016;-82
2023/05/17 03:32:04;;;;;;;;;;;;;;;10.01;100.00;-18297.56;5026076;28;20004;-81
2023/05/17 03:34:29;;;;;;;;;;;;;;;9.89;100.00;-18294.28;5026800;28;20000;-79
2023/05/17 03:36:54;;;;;;;;;;;;;;;10.09;100.00;-18299.78;5023906;28;19925;-80
2023/05/17 03:39:19;;;;;;;;;;;;;;;9.99;100.00;-18297.03;5023965;28;19924;-80
2023/05/17 03:41:45;;;;;;;;;;;;;;;10.07;100.00;-18299.22;5025006;28;19979;-79
2023/05/17 03:44:10;;;;;;;;;;;;;;;9.98;100.00;-18296.63;5025924;28;19936;-79
2023/05/17 03:46:35;;;;;;;;;;;;;;;9.89;100.00;-18294.41;5027888;28;19920;-80
2023/05/17 03:49:00;;;;;;;;;;;;;;;9.77;100.00;-18291.13;5024146;28;19920;-80
2023/05/17 03:51:26;;;;;;;;;;;;;;;9.62;100.00;-18287.00;5024978;28;19976;-80
2023/05/17 03:53:56;;;;;;;;;;;;;;;9.75;100.00;-18290.44;5006369;28;19917;-79
2023/05/17 03:56:21;;;;;;;;;;;;;;;9.73;100.00;-18289.88;5023185;28;19929;-80
2023/05/17 03:58:46;;;;;;;;;;;;;;;9.66;100.00;-18288.09;5024009;28;19925;-80
2023/05/17 04:01:12;;;;;;;;;;;;;;;9.53;100.00;-18284.66;5024138;28;19917;-80
2023/05/17 04:03:38;;;;;;;;;;;;;;;9.61;100.00;-18286.84;5023660;28;20387;-80
2023/05/17 04:06:05;;;;;;;;;;;;;;;9.61;100.00;-18286.84;5024081;28;19925;-80
2023/05/17 04:08:31;;;;;;;;;;;;;;;9.59;100.00;-18286.31;5023423;28;19917;-79
2023/05/17 04:10:56;;;;;;;;;;;;;;;9.70;100.00;-18289.31;5025569;28;19925;-83
2023/05/17 04:13:22;;;;;;;;;;;;;;;9.67;100.00;-18288.50;5025304;28;20008;-80
2023/05/17 04:15:47;;;;;;;;;;;;;;;9.71;100.00;-18289.59;5025684;28;20383;-80
2023/05/17 04:18:12;;;;;;;;;;;;;;;9.57;100.00;-18285.63;5024883;28;20316;-80
2023/05/17 04:20:37;;;;;;;;;;;;;;;9.34;100.00;-18279.44;5024238;28;19917;-80
2023/05/17 04:23:02;;;;;;;;;;;;;;;9.27;100.00;-18277.78;5024577;28;19966;-80
2023/05/17 04:25:28;;;;;;;;;;;;;;;8.99;100.00;-18270.06;5025315;28;19936;-81
2023/05/17 04:27:53;;;;;;;;;;;;;;;9.12;100.00;-18273.66;5025592;28;19925;-80
2023/05/17 04:30:20;;;;;;;;;;;;;;;9.18;100.00;-18275.31;5025684;28;19970;-79
2023/05/17 04:32:45;;;;;;;;;;;;;;;9.25;100.00;-18277.22;5022204;28;19917;-79
2023/05/17 04:35:11;;;;;;;;;;;;;;;9.38;100.00;-18280.53;5021154;28;19925;-79
2023/05/17 04:37:38;;;;;;;;;;;;;;;9.31;100.00;-18278.75;5005616;28;19961;-79
2023/05/17 04:40:05;;;;;;;;;;;;;;;9.39;100.00;-18280.81;5022130;28;19936;-79
2023/05/17 04:42:31;;;;;;;;;;;;;;;9.46;100.00;-18282.72;5021062;28;19970;-79
2023/05/17 04:44:56;;;;;;;;;;;;;;;9.64;100.00;-18287.69;5017281;28;19924;-79
2023/05/17 04:47:21;;;;;;;;;;;;;;;9.66;100.00;-18288.22;5017089;28;20555;-79
2023/05/17 04:49:47;;;;;;;;;;;;;;;9.59;100.00;-18286.31;5019063;28;20011;-79
2023/05/17 04:52:12;;;;;;;;;;;;;;;9.57;100.00;-18285.75;5019664;28;19917;-79
2023/05/17 04:54:38;;;;;;;;;;;;;;;9.47;100.00;-18283.13;5020769;28;19925;-79
2023/05/17 04:57:03;;;;;;;;;;;;;;;9.58;100.00;-18286.03;5021495;28;19917;-78
2023/05/17 04:59:28;;;;;;;;;;;;;;;9.68;100.00;-18288.78;5023032;28;20011;-78
2023/05/17 05:01:55;;;;;;;;;;;;;;;9.59;100.00;-18286.31;5023873;28;19929;-78
2023/05/17 05:04:20;;;;;;;;;;;;;;;9.62;100.00;-18287.00;5028618;22;19928;-81
2023/05/17 05:06:46;;;;;;;;;;;;;;;9.76;100.00;-18290.69;4994477;28;19929;-81
2023/05/17 05:09:11;;;;;;;;;;;;;;;9.84;100.00;-18292.91;5008270;28;19963;-80
2023/05/17 05:11:36;;;;;;;;;;;;;;;9.84;100.00;-18293.03;5013322;28;19929;-81
2023/05/17 05:14:01;;;;;;;;;;;;;;;9.91;100.00;-18294.81;4986676;28;19921;-80
2023/05/17 05:16:26;;;;;;;;;;;;;;;9.98;100.00;-18296.75;4994635;28;19976;-81
2023/05/17 05:18:52;;;;;;;;;;;;;;;10.17;100.00;-18301.97;4994751;28;19929;-81
2023/05/17 05:21:17;;;;;;;;;;;;;;;10.17;100.00;-18301.97;4993531;28;19979;-81
2023/05/17 05:23:42;;;;;;;;;;;;;;;10.29;100.00;-18305.13;4998501;28;19932;-81
2023/05/17 05:26:07;;;;;;;;;;;;;;;10.38;100.00;-18307.63;4995819;28;19968;-81
2023/05/17 05:28:33;;;;;;;;;;;;;;;10.41;100.00;-18308.16;4998281;28;19917;-82
2023/05/17 05:31:01;;;;;;;;;;;;;;;10.44;100.00;-18309.13;4999643;28;19933;-82
2023/05/17 05:33:26;;;;;;;;;;;;;;;10.47;100.00;-18309.94;4999779;28;19925;-80
2023/05/17 05:35:51;;;;;;;;;;;;;;;10.58;100.00;-18312.84;5000522;28;19921;-82
2023/05/17 05:38:17;;;;;;;;;;;;;;;10.73;100.00;-18316.81;4999778;28;19952;-82
2023/05/17 05:40:44;;;;;;;;;;;;;;;10.58;100.00;-18312.84;4999053;28;19917;-82
2023/05/17 05:43:12;;;;;;;;;;;;;;;10.71;100.00;-18316.41;4998974;28;19929;-82
2023/05/17 05:45:44;;;;;;;;;;;;;;;10.87;100.00;-18320.66;4999487;28;20020;-82
2023/05/17 05:48:09;;;;;;;;;;;;;;;10.81;100.00;-18319.00;4999714;28;19921;-82
2023/05/17 05:50:35;;;;;;;;;;;;;;;11.02;100.00;-18324.78;4999055;28;19957;-83
2023/05/17 05:53:03;;;;;;;;;;;;;;;11.01;100.00;-18324.50;5000119;28;19925;-80
2023/05/17 05:55:28;;;;;;;;;;;;;;;11.04;100.00;-18325.34;5002501;28;19993;-82
2023/05/17 05:57:53;;;;;;;;;;;;;;;11.09;100.00;-18326.44;5002344;28;19918;-82
2023/05/17 06:00:18;;;;;;;;;;;;;;;11.29;100.00;-18331.94;5002091;28;19921;-82
2023/05/17 06:02:44;;;;;;;;;;;;;;;11.35;100.00;-18333.56;5004505;28;19949;-81
2023/05/17 06:05:09;;;;;;;;;;;;;;;11.30;100.00;-18332.19;5002175;28;20343;-81
2023/05/17 06:07:34;;;;;;;;;;;;;;;11.34;100.00;-18333.31;5004715;28;19929;-82
2023/05/17 06:10:00;;;;;;;;;;;;;;;11.27;100.00;-18331.38;5000307;28;19925;-81
2023/05/17 06:12:25;;;;;;;;;;;;;;;11.21;100.00;-18329.72;5001927;28;19925;-82
2023/05/17 06:14:50;;;;;;;;;;;;;;;11.23;100.00;-18330.28;5002704;28;19976;-82
2023/05/17 06:17:15;;;;;;;;;;;;;;;11.23;100.00;-18330.41;5002492;28;19918;-81
2023/05/17 06:19:41;;;;;;;;;;;;;;;11.22;100.00;-18330.00;5000862;28;19948;-81
2023/05/17 06:22:06;;;;;;;;;;;;;;;11.30;100.00;-18332.19;5002558;28;19985;-81
2023/05/17 06:24:31;;;;;;;;;;;;;;;11.27;100.00;-18331.38;5001292;28;19925;-81
2023/05/17 06:26:56;;;;;;;;;;;;;;;11.26;100.00;-18331.25;5002299;28;19929;-80
2023/05/17 06:29:22;;;;;;;;;;;;;;;11.25;100.00;-18330.84;4999197;28;19936;-81
2023/05/17 06:31:48;;;;;;;;;;;;;;;11.37;100.00;-18334.13;5003575;28;19936;-81
2023/05/17 06:34:13;;;;;;;;;;;;;;;11.87;100.00;-18347.56;5000866;28;19925;-82
2023/05/17 06:36:38;;;;;;;;;;;;;;;12.04;100.00;-18351.97;5000831;28;19925;-81
2023/05/17 06:39:03;;;;;;;;;;;;;;;12.04;100.00;-18351.97;5001532;28;19918;-81
2023/05/17 06:41:29;;;;;;;;;;;;;;;12.24;100.00;-18357.31;5000684;28;19928;-81
2023/05/17 06:43:54;;;;;;;;;;;;;;;12.35;100.00;-18360.34;4998217;28;19964;-81
2023/05/17 06:46:19;;;;;;;;;;;;;;;12.35;100.00;-18360.47;5001268;28;19922;-81
2023/05/17 06:48:45;;;;;;;;;;;;;;;12.30;100.00;-18359.09;4983866;28;19928;-81
2023/05/17 06:51:10;;;;;;;;;;;;;;;12.41;100.00;-18362.00;5000228;28;19937;-82
2023/05/17 06:53:35;;;;;;;;;;;;;;;12.64;100.00;-18368.16;4999332;28;20316;-81
2023/05/17 06:56:00;;;;;;;;;;;;;;;12.60;100.00;-18367.06;5000743;28;19922;-81
2023/05/17 06:58:26;;;;;;;;;;;;;;;12.64;100.00;-18368.16;4995021;28;21318;-81
2023/05/17 07:00:51;;;;;;;;;;;;;;;12.49;100.00;-18364.19;5002595;28;20004;-82
2023/05/17 07:03:16;;;;;;;;;;;;;;;12.67;100.00;-18368.97;5000415;28;19929;-81
2023/05/17 07:05:41;;;;;;;;;;;;;;;12.63;100.00;-18367.88;4999693;28;20465;-82
2023/05/17 07:08:07;;;;;;;;;;;;;;;12.45;100.00;-18362.94;4995793;28;19937;-81
2023/05/17 07:10:32;;;;;;;;;;;;;;;12.58;100.00;-18366.66;4995017;28;19932;-81
2023/05/17 07:12:57;;;;;;;;;;;;;;;12.50;100.00;-18364.44;5002168;28;19918;-81
2023/05/17 07:15:23;;;;;;;;;;;;;;;12.49;100.00;-18364.03;4996920;28;19932;-81
2023/05/17 07:17:48;;;;;;;;;;;;;;;12.53;100.00;-18365.28;4987738;28;20015;-82
2023/05/17 07:20:13;;;;;;;;;;;;;;;12.53;100.00;-18365.13;4988019;28;19930;-81
2023/05/17 07:22:39;;;;;;;;;;;;;;;12.68;100.00;-18369.25;4988925;28;19926;-81
2023/05/17 07:25:04;;;;;;;;;;;;;;;12.66;100.00;-18368.72;4990123;28;19921;-81
2023/05/17 07:27:30;;;;;;;;;;;;;;;12.47;100.00;-18363.50;4987748;28;19941;-81
2023/05/17 07:29:55;;;;;;;;;;;;;;;12.51;100.00;-18364.59;4988113;28;20533;-81
2023/05/17 07:32:20;;;;;;;;;;;;;;;12.51;100.00;-18364.59;4986993;28;19922;-81
2023/05/17 07:34:45;;;;;;;;;;;;;;;12.62;100.00;-18367.75;4989533;28;20269;-81
2023/05/17 07:37:10;;;;;;;;;;;;;;;12.83;100.00;-18373.38;4987085;28;19925;-81
2023/05/17 07:39:36;;;;;;;;;;;;;;;12.76;100.00;-18371.31;4986816;28;19968;-81
2023/05/17 07:42:01;;;;;;;;;;;;;;;12.81;100.00;-18372.69;4988161;28;19972;-81
2023/05/17 07:44:26;;;;;;;;;;;;;;;12.78;100.00;-18372.00;4986593;28;19926;-81
2023/05/17 07:46:51;;;;;;;;;;;;;;;13.04;100.00;-18378.84;4989889;28;20369;-81
2023/05/17 07:49:17;;;;;;;;;;;;;;;13.29;100.00;-18385.56;4985094;28;21363;-81
2023/05/17 07:51:42;;;;;;;;;;;;;;;13.28;97.68;-18385.44;4971076;28;19976;-82
2023/05/17 07:54:07;;;;;;;;;;;;;;;13.32;95.47;-18386.41;4989479;28;19917;-81
2023/05/17 07:56:32;;;;;;;;;;;;;;;13.21;95.47;-18383.50;4996899;28;19926;-81
2023/05/17 07:58:58;;;;;;;;;;;;;;;13.15;93.40;-18381.72;4995871;28;19925;-81
2023/05/17 08:01:23;;;;;;;;;;;;;;;13.34;90.48;-18386.81;4997677;28;20198;-81
2023/05/17 08:03:48;;;;;;;;;;;;;;;13.28;92.97;-18385.44;4999608;28;19924;-81
2023/05/17 08:06:14;;;;;;;;;;;;;;;13.41;90.77;-18388.72;4998369;28;19929;-81
2023/05/17 08:08:40;;;;;;;;;;;;;;;13.48;84.68;-18390.66;4997378;28;19953;-81
2023/05/17 08:11:05;;;;;;;;;;;;;;;13.30;90.96;-18385.97;4996996;28;19918;-81
2023/05/17 08:13:31;;;;;;;;;;;;;;;13.32;91.02;-18386.41;4997005;28;19970;-81
2023/05/17 08:16:01;;;;;;;;;;;;;;;13.45;83.62;-18389.97;4997449;28;19932;-81
2023/05/17 08:18:26;;;;;;;;;;;;;;;13.47;83.12;-18390.38;4995625;28;19932;-81
2023/05/17 08:20:51;;;;;;;;;;;;;;;13.43;77.59;-18389.28;4998637;28;19952;-81
2023/05/17 08:23:16;;;;;;;;;;;;;;;13.45;81.17;-18389.97;4997108;28;19921;-81
2023/05/17 08:25:42;;;;;;;;;;;;;;;13.79;77.85;-18398.88;4997551;28;20009;-82
2023/05/17 08:28:07;;;;;;;;;;;;;;;13.76;74.45;-18398.31;4996285;28;20151;-83
2023/05/17 08:30:32;;;;;;;;;;;;;;;13.82;74.04;-18399.69;4997482;28;19925;-80
2023/05/17 08:32:57;;;;;;;;;;;;;;;14.02;73.43;-18405.16;4994659;28;19926;-80
2023/05/17 08:35:24;;;;;;;;;;;;;;;14.19;71.98;-18409.81;4992900;28;19917;-80
2023/05/17 08:37:50;;;;;;;;;;;;;;;14.39;66.96;-18415.03;4994754;28;19918;-81
2023/05/17 08:40:18;;;;;;;;;;;;;;;14.34;65.49;-18413.78;4991751;28;19932;-80
2023/05/17 08:42:44;;;;;;;;;;;;;;;14.29;63.77;-18412.28;4991895;28;19922;-80
2023/05/17 08:45:09;;;;;;;;;;;;;;;14.35;70.05;-18413.94;4990665;28;20322;-81
2023/05/17 08:47:36;;;;;;;;;;;;;;;14.16;67.31;-18408.88;4991384;28;19968;-81
2023/05/17 08:50:04;;;;;;;;;;;;;;;13.95;72.42;-18403.25;4990796;28;20006;-81
2023/05/17 08:52:31;;;;;;;;;;;;;;;13.93;66.59;-18402.84;4992083;28;19925;-80
2023/05/17 08:54:56;;;;;;;;;;;;;;;13.83;68.90;-18399.97;4990281;28;21025;-81
2023/05/17 08:57:23;;;;;;;;;;;;;;;13.99;72.26;-18404.34;4976776;28;19917;-80
2023/05/17 08:59:48;;;;;;;;;;;;;;;14.00;66.54;-18404.75;4991652;28;20237;-81
2023/05/17 09:02:14;;;;;;;;;;;;;;;14.09;70.50;-18407.06;4976774;28;19961;-80
2023/05/17 09:04:40;;;;;;;;;;;;;;;14.29;73.34;-18412.41;4993652;28;20384;-81
2023/05/17 09:07:05;;;;;;;;;;;;;;;14.26;66.22;-18411.47;4990062;28;20341;-80
2023/05/17 09:09:31;;;;;;;;;;;;;;;14.34;66.56;-18413.78;4989751;28;19977;-80
2023/05/17 09:11:57;;;;;;;;;;;;;;;14.55;68.14;-18419.41;4989581;28;19926;-80
2023/05/17 09:14:22;;;;;;;;;;;;;;;14.22;68.16;-18410.63;4971138;28;20395;-80
2023/05/17 09:16:54;;;;;;;;;;;;;;;14.20;65.31;-18410.09;4993157;28;20594;-80
2023/05/17 09:19:19;;;;;;;;;;;;;;;14.21;62.63;-18410.38;4996639;28;19957;-80
2023/05/17 09:21:46;;;;;;;;;;;;;;;14.60;64.85;-18420.63;4981916;28;19945;-79
2023/05/17 09:24:12;;;;;;;;;;;;;;;14.70;62.38;-18423.25;4990804;28;20008;-80
2023/05/17 09:26:44;;;;;;;;;;;;;;;14.48;59.86;-18417.50;4988380;28;20484;-80
2023/05/17 09:29:09;;;;;;;;;;;;;;;14.03;69.98;-18405.44;4991334;28;19921;-80
2023/05/17 09:31:34;;;;;;;;;;;;;;;14.37;64.92;-18414.63;4990427;28;19925;-80
2023/05/17 09:34:00;;;;;;;;;;;;;;;14.77;64.73;-18425.16;4994980;28;19925;-79
2023/05/17 09:36:26;;;;;;;;;;;;;;;14.58;61.25;-18420.22;4993257;28;19983;-80
2023/05/17 09:38:59;;;;;;;;;;;;;;;14.62;64.98;-18421.31;4994341;28;20004;-80
2023/05/17 09:41:44;;;;;;;;;;;;;;;14.80;58.29;-18425.97;4995763;28;19949;-80
2023/05/17 09:44:10;;;;;;;;;;;;;;;14.64;57.87;-18421.88;4994105;28;19932;-80
2023/05/17 09:46:40;;;;;;;;;;;;;;;14.57;60.45;-18419.97;4994193;28;19968;-80
2023/05/17 09:49:06;;;;;;;;;;;;;;;14.25;60.91;-18411.19;4992932;28;20403;-80
2023/05/17 09:51:35;;;;;;;;;;;;;;;14.43;66.04;-18416.13;4994101;28;19928;-80
2023/05/17 09:54:01;;;;;;;;;;;;;;;14.70;61.54;-18423.25;4995389;28;19917;-81
2023/05/17 09:56:29;;;;;;;;;;;;;;;14.40;61.67;-18415.28;4995667;28;19932;-81
2023/05/17 09:58:55;;;;;;;;;;;;;;;14.30;60.54;-18412.56;4994857;28;20581;-81
2023/05/17 10:01:21;;;;;;;;;;;;;;;14.19;57.78;-18409.69;4995367;28;20016;-81
2023/05/17 10:03:47;;;;;;;;;;;;;;;14.32;57.47;-18413.25;4993146;28;19925;-81
2023/05/17 10:06:14;;;;;;;;;;;;;;;14.26;60.24;-18411.47;4994553;28;19929;-80
2023/05/17 10:08:43;;;;;;;;;;;;;;;14.49;59.34;-18417.63;4979563;28;19930;-81
2023/05/17 10:11:09;;;;;;;;;;;;;;;14.86;59.90;-18427.75;4992273;28;19918;-81
2023/05/17 10:13:47;;;;;;;;;;;;;;;15.14;60.10;-18435.00;4996273;28;20448;-81
2023/05/17 10:16:13;;;;;;;;;;;;;;;15.43;56.28;-18442.94;4992828;28;20440;-81
2023/05/17 10:18:39;;;;;;;;;;;;;;;15.17;52.13;-18435.84;4994429;28;20685;-81
2023/05/17 10:21:05;;;;;;;;;;;;;;;15.49;54.57;-18444.59;4992626;28;19949;-80
2023/05/17 10:23:30;;;;;;;;;;;;;;;15.42;55.06;-18442.66;4994661;28;19918;-81
2023/05/17 10:25:56;;;;;;;;;;;;;;;15.09;54.39;-18433.91;4994772;28;20396;-81
2023/05/17 10:28:22;;;;;;;;;;;;;;;14.97;60.49;-18430.50;4993800;28;20583;-81
2023/05/17 10:30:49;;;;;;;;;;;;;;;15.16;60.03;-18435.56;4992239;28;19921;-81
2023/05/17 10:33:16;;;;;;;;;;;;;;;15.21;55.54;-18437.06;4992456;28;20008;-81
2023/05/17 10:35:42;;;;;;;;;;;;;;;15.29;53.23;-18439.13;4994178;28;19922;-83
2023/05/17 10:38:07;;;;;;;;;;;;;;;15.46;52.84;-18443.75;4991052;28;19918;-82
2023/05/17 10:40:36;;;;;;;;;;;;;;;15.47;51.36;-18443.91;4993499;28;19925;-81
2023/05/17 10:43:03;;;;;;;;;;;;;;;15.45;49.53;-18443.34;4989874;28;19941;-82
2023/05/17 10:45:28;;;;;;;;;;;;;;;15.53;50.10;-18445.69;4990407;28;19930;-83
2023/05/17 10:47:54;;;;;;;;;;;;;;;15.41;51.81;-18442.41;4992491;28;19925;-81
2023/05/17 10:50:23;;;;;;;;;;;;;;;15.65;50.83;-18448.81;4990321;28;19917;-82
2023/05/17 10:52:49;;;;;;;;;;;;;;;15.86;49.54;-18454.44;4988656;28;19925;-78
2023/05/17 10:55:33;;;;;;;;;;;;;;;15.64;47.89;-18448.56;4984886;28;20484;-79
2023/05/17 10:58:14;;;;;;;;;;;;;;;15.73;49.67;-18451.00;4985590;28;19926;-77
2023/05/17 11:00:40;;;;;;;;;;;;;;;15.31;49.13;-18439.78;4969493;28;19917;-77
2023/05/17 11:03:19;;;;;;;;;;;;;;;15.60;50.97;-18447.31;4987256;28;20408;-78
2023/05/17 11:06:05;;;;;;;;;;;;;;;15.65;58.17;-18448.69;5021428;23;20378;-86
2023/05/17 11:08:31;;;;;;;;;;;;;;;15.76;51.02;-18451.69;5015173;28;19928;-86
2023/05/17 11:11:11;;;;;;;;;;;;;;;15.59;49.98;-18447.19;5000177;28;20477;-86
2023/05/17 11:13:57;;;;;;;;;;;;;;;15.48;48.26;-18444.31;5016182;23;20001;-82
2023/05/17 11:16:36;;;;;;;;;;;;;;;15.69;51.53;-18449.78;4955274;28;20012;-81
2023/05/17 11:19:09;;;;;;;;;;;;;;;15.75;50.84;-18451.44;4954846;28;20411;-81
2023/05/17 11:21:34;;;;;;;;;;;;;;;15.66;50.54;-18448.97;4940502;28;20400;-80
2023/05/17 11:24:02;;;;;;;;;;;;;;;15.41;50.61;-18442.41;4959253;28;19958;-79
2023/05/17 11:26:31;;;;;;;;;;;;;;;15.45;49.29;-18443.50;4960870;28;19922;-78
2023/05/17 11:29:05;;;;;;;;;;;;;;;15.77;50.90;-18452.13;4955019;28;19922;-79
2023/05/17 11:31:32;;;;;;;;;;;;;;;15.56;49.38;-18446.34;4958659;28;19929;-78
2023/05/17 11:33:58;;;;;;;;;;;;;;;15.61;50.53;-18447.59;4959108;28;19922;-81
2023/05/17 11:36:24;;;;;;;;;;;;;;;15.82;51.67;-18453.34;4957997;28;20004;-77
2023/05/17 11:39:07;;;;;;;;;;;;;;;16.08;49.40;-18460.19;4958112;28;19974;-78
2023/05/17 11:41:35;;;;;;;;;;;;;;;15.78;49.58;-18452.25;4960705;28;20610;-77
2023/05/17 11:44:01;;;;;;;;;;;;;;;15.73;53.09;-18450.88;4960939;28;19915;-78
2023/05/17 11:46:26;;;;;;;;;;;;;;;15.79;50.47;-18452.53;4959562;28;19988;-79
2023/05/17 11:48:52;;;;;;;;;;;;;;;15.86;50.49;-18454.44;4958781;28;19924;-79
2023/05/17 11:51:18;;;;;;;;;;;;;;;15.90;49.38;-18455.53;4961592;28;19921;-79
2023/05/17 11:53:45;;;;;;;;;;;;;;;16.31;52.00;-18466.47;4961628;28;20320;-81
2023/05/17 11:56:11;;;;;;;;;;;;;;;16.22;47.26;-18464.13;4958560;28;19914;-79
2023/05/17 11:58:36;;;;;;;;;;;;;;;16.29;47.71;-18465.78;4960836;28;19920;-79
2023/05/17 12:01:03;;;;;;;;;;;;;;;16.62;51.47;-18474.66;4961160;28;20471;-79
2023/05/17 12:03:29;;;;;;;;;;;;;;;16.44;45.45;-18470.00;4956036;28;19922;-82
2023/05/17 12:06:08;;;;;;;;;;;;;;;15.94;45.98;-18456.47;4956174;28;19927;-80
2023/05/17 12:08:34;;;;;;;;;;;;;;;15.69;48.16;-18449.78;4956446;28;19914;-77
2023/05/17 12:10:59;;;;;;;;;;;;;;;16.40;51.52;-18468.78;4960774;28;19925;-80
2023/05/17 12:13:29;;;;;;;;;;;;;;;16.67;47.91;-18476.16;4956419;28;19942;-79
2023/05/17 12:15:59;;;;;;;;;;;;;;;16.63;47.65;-18474.94;4955985;28;20565;-79
2023/05/17 12:18:40;;;;;;;;;;;;;;;16.53;48.08;-18472.19;4960045;28;19918;-82
2023/05/17 12:21:06;;;;;;;;;;;;;;;16.28;48.55;-18465.50;4960874;28;19953;-79
2023/05/17 12:23:32;;;;;;;;;;;;;;;16.29;48.32;-18465.78;4949824;28;20029;-79
2023/05/17 12:26:05;;;;;;;;;;;;;;;16.24;48.42;-18464.56;4954710;28;19983;-78
2023/05/17 12:28:30;;;;;;;;;;;;;;;16.47;50.32;-18470.69;4958180;28;19929;-79
2023/05/17 12:30:57;;;;;;;;;;;;;;;16.73;45.96;-18477.66;4954478;28;19914;-80